createdAt,value
2018-07-28T00:00:51.811Z,99.90
2018-07-28T00:03:20.221Z,99.90
2018-07-28T00:05:48.522Z,99.90
2018-07-28T00:08:16.852Z,99.90
2018-07-28T00:10:45.194Z,99.90
2018-07-28T00:13:13.487Z,99.90
2018-07-28T00:15:41.813Z,99.90
2018-07-28T00:18:10.202Z,99.90
2018-07-28T00:20:38.516Z,99.90
2018-07-28T00:23:06.936Z,99.90
2018-07-28T00:25:38.516Z,99.90
2018-07-28T00:28:07.571Z,99.90
2018-07-28T00:30:35.867Z,99.90
2018-07-28T00:33:04.199Z,99.90
2018-07-28T00:35:32.521Z,99.90
2018-07-28T00:38:00.804Z,99.90
2018-07-28T00:40:29.116Z,99.90
2018-07-28T00:42:57.425Z,99.90
2018-07-28T00:45:25.916Z,99.90
2018-07-28T00:47:54.201Z,99.90
2018-07-28T00:50:22.502Z,99.90
2018-07-28T00:52:51.021Z,99.90
2018-07-28T00:55:19.448Z,99.90
2018-07-28T00:57:47.767Z,99.90
2018-07-28T01:00:16.067Z,99.90
2018-07-28T01:02:44.437Z,99.90
2018-07-28T01:05:12.762Z,99.90
2018-07-28T01:07:41.085Z,99.90
2018-07-28T01:10:09.454Z,99.90
2018-07-28T01:12:37.758Z,99.90
2018-07-28T01:15:09.464Z,99.90
2018-07-28T01:17:37.923Z,99.90
2018-07-28T01:20:06.927Z,99.90
2018-07-28T01:22:35.245Z,99.90
2018-07-28T01:25:03.846Z,99.90
2018-07-28T01:27:32.169Z,99.90
2018-07-28T01:30:00.532Z,99.90
2018-07-28T01:32:28.840Z,99.90
2018-07-28T01:34:57.136Z,99.90
2018-07-28T01:37:25.406Z,99.90
2018-07-28T01:39:53.733Z,99.90
2018-07-28T01:42:22.030Z,99.90
2018-07-28T01:44:50.356Z,99.90
2018-07-28T01:47:18.755Z,99.90
2018-07-28T01:49:47.045Z,99.90
2018-07-28T01:52:15.407Z,99.90
2018-07-28T01:54:43.708Z,99.90
2018-07-28T01:57:12.055Z,99.90
2018-07-28T01:59:40.383Z,99.90
2018-07-28T02:02:08.795Z,99.90
2018-07-28T02:04:37.073Z,99.90
2018-07-28T02:07:05.726Z,99.90
2018-07-28T02:09:34.121Z,99.90
2018-07-28T02:12:02.496Z,99.90
2018-07-28T02:14:30.761Z,99.90
2018-07-28T02:16:59.102Z,99.90
2018-07-28T02:19:27.488Z,99.90
2018-07-28T02:21:55.782Z,99.90
2018-07-28T02:24:24.069Z,99.90
2018-07-28T02:26:52.377Z,99.90
2018-07-28T02:29:20.698Z,99.90
2018-07-28T02:31:49.000Z,99.90
2018-07-28T02:34:17.567Z,99.90
2018-07-28T02:36:45.973Z,99.90
2018-07-28T02:39:14.289Z,99.90
2018-07-28T02:41:42.638Z,99.90
2018-07-28T02:44:10.939Z,99.90
2018-07-28T02:46:39.353Z,99.90
2018-07-28T02:49:07.989Z,99.90
2018-07-28T02:51:36.285Z,99.90
2018-07-28T02:54:04.614Z,99.90
2018-07-28T02:56:32.928Z,99.90
2018-07-28T02:59:01.291Z,99.90
2018-07-28T03:01:29.573Z,99.90
2018-07-28T03:03:57.904Z,99.90
2018-07-28T03:06:26.282Z,99.90
2018-07-28T03:08:54.711Z,99.90
2018-07-28T03:11:23.034Z,99.90
2018-07-28T03:16:19.385Z,99.90
2018-07-28T03:18:47.950Z,99.90
2018-07-28T03:21:16.255Z,99.90
2018-07-28T03:23:44.616Z,99.90
2018-07-28T03:26:12.960Z,99.90
2018-07-28T03:28:41.258Z,99.90
2018-07-28T03:31:09.571Z,99.90
2018-07-28T03:33:37.894Z,99.90
2018-07-28T03:36:06.211Z,99.90
2018-07-28T03:38:34.524Z,99.90
2018-07-28T03:41:02.948Z,99.90
2018-07-28T03:43:31.225Z,99.90
2018-07-28T03:45:59.538Z,99.90
2018-07-28T03:48:27.898Z,99.90
2018-07-28T03:50:56.218Z,99.90
2018-07-28T03:53:24.514Z,99.90
2018-07-28T03:55:53.215Z,99.90
2018-07-28T03:58:21.537Z,99.90
2018-07-28T04:00:49.851Z,99.90
2018-07-28T04:03:18.209Z,99.90
2018-07-28T04:05:46.507Z,99.90
2018-07-28T04:08:14.825Z,99.90
2018-07-28T04:10:43.165Z,99.90
2018-07-28T04:13:11.456Z,99.90
2018-07-28T04:15:39.803Z,99.90
2018-07-28T04:18:08.080Z,99.90
2018-07-28T04:20:36.429Z,99.90
2018-07-28T04:23:04.731Z,99.90
2018-07-28T04:25:33.019Z,99.90
2018-07-28T04:28:01.355Z,99.90
2018-07-28T04:30:29.635Z,99.90
2018-07-28T04:32:57.934Z,99.90
2018-07-28T04:35:26.257Z,99.90
2018-07-28T04:37:54.676Z,99.90
2018-07-28T04:40:22.973Z,99.90
2018-07-28T04:42:51.344Z,99.90
2018-07-28T04:45:19.617Z,99.90
2018-07-28T04:47:48.167Z,99.90
2018-07-28T04:50:16.457Z,99.90
2018-07-28T04:52:44.755Z,99.90
2018-07-28T04:55:13.155Z,99.90
2018-07-28T04:57:41.428Z,99.90
2018-07-28T05:00:09.768Z,99.90
2018-07-28T05:02:38.093Z,99.90
2018-07-28T05:05:06.448Z,99.90
2018-07-28T05:07:34.871Z,99.90
2018-07-28T05:10:03.134Z,99.90
2018-07-28T05:12:31.473Z,99.90
2018-07-28T05:14:59.797Z,99.90
2018-07-28T05:17:28.379Z,99.90
2018-07-28T05:19:56.680Z,99.90
2018-07-28T05:22:25.004Z,99.90
2018-07-28T05:24:53.370Z,99.90
2018-07-28T05:27:21.686Z,99.90
2018-07-28T05:29:50.009Z,99.90
2018-07-28T05:32:18.338Z,99.90
2018-07-28T05:34:47.051Z,99.90
2018-07-28T05:37:15.451Z,99.90
2018-07-28T05:39:44.151Z,99.90
2018-07-28T05:42:12.488Z,99.90
2018-07-28T05:44:40.805Z,99.90
2018-07-28T05:47:09.107Z,99.90
2018-07-28T05:49:37.391Z,99.90
2018-07-28T05:52:06.085Z,99.90
2018-07-28T05:54:34.408Z,99.90
2018-07-28T05:57:02.752Z,99.90
2018-07-28T05:59:31.084Z,99.90
2018-07-28T06:01:59.468Z,99.90
2018-07-28T06:04:27.858Z,99.90
2018-07-28T06:06:56.188Z,99.90
2018-07-28T06:09:24.538Z,99.90
2018-07-28T06:11:53.046Z,99.90
2018-07-28T06:14:21.402Z,99.90
2018-07-28T06:16:49.768Z,99.90
2018-07-28T06:19:18.082Z,99.90
2018-07-28T06:21:46.364Z,99.90
2018-07-28T06:24:14.696Z,99.90
2018-07-28T06:33:29.630Z,99.90
2018-07-28T06:35:57.930Z,99.90
2018-07-28T06:38:26.267Z,99.90
2018-07-28T06:40:54.603Z,99.90
2018-07-28T06:43:22.964Z,99.90
2018-07-28T06:45:51.251Z,97.10
2018-07-28T06:48:19.547Z,94.60
2018-07-28T06:50:48.119Z,92.70
2018-07-28T06:53:16.460Z,86.80
2018-07-28T06:55:44.749Z,85.30
2018-07-28T06:58:13.037Z,81.00
2018-07-28T07:00:41.355Z,75.40
2018-07-28T07:03:09.634Z,74.50
2018-07-28T07:05:37.954Z,73.70
2018-07-28T07:08:06.309Z,71.40
2018-07-28T07:10:34.611Z,70.00
2018-07-28T07:13:03.019Z,70.40
2018-07-28T07:15:31.304Z,67.50
2018-07-28T07:20:27.619Z,65.70
2018-07-28T07:22:55.881Z,64.10
2018-07-28T07:25:24.175Z,65.50
2018-07-28T07:27:52.469Z,61.50
2018-07-28T07:30:20.825Z,60.20
2018-07-28T07:32:49.091Z,60.60
2018-07-28T07:35:17.382Z,58.70
2018-07-28T07:37:45.692Z,59.00
2018-07-28T07:40:13.979Z,58.20
2018-07-28T07:42:42.285Z,58.50
2018-07-28T07:45:10.569Z,57.20
2018-07-28T07:47:38.962Z,55.70
2018-07-28T07:50:07.203Z,57.00
2018-07-28T07:52:35.500Z,55.50
2018-07-28T07:55:03.826Z,53.70
2018-07-28T07:57:32.136Z,51.80
2018-07-28T08:00:00.430Z,54.90
2018-07-28T08:02:28.705Z,52.10
2018-07-28T08:04:57.107Z,53.80
2018-07-28T08:07:25.339Z,52.60
2018-07-28T08:09:53.730Z,51.70
2018-07-28T08:12:22.060Z,51.70
2018-07-28T08:14:50.377Z,51.50
2018-07-28T08:17:18.668Z,51.40
2018-07-28T08:19:46.984Z,51.90
2018-07-28T08:22:15.296Z,51.90
2018-07-28T08:24:43.590Z,51.10
2018-07-28T08:27:12.071Z,49.40
2018-07-28T08:29:40.423Z,50.80
2018-07-28T08:32:08.771Z,49.70
2018-07-28T08:34:37.064Z,50.10
2018-07-28T08:37:05.400Z,48.00
2018-07-28T08:39:33.704Z,47.80
2018-07-28T08:42:02.014Z,50.80
2018-07-28T08:44:30.352Z,47.70
2018-07-28T08:46:58.717Z,48.80
2018-07-28T08:49:27.173Z,47.80
2018-07-28T08:51:55.489Z,46.90
2018-07-28T08:54:23.753Z,49.50
2018-07-28T08:56:52.167Z,47.60
2018-07-28T08:59:20.504Z,49.90
2018-07-28T09:01:48.792Z,49.10
2018-07-28T09:04:17.105Z,49.70
2018-07-28T09:06:45.377Z,48.70
2018-07-28T09:09:13.689Z,45.90
2018-07-28T09:11:42.064Z,47.60
2018-07-28T09:14:10.742Z,45.10
2018-07-28T09:16:39.414Z,46.90
2018-07-28T09:19:07.796Z,48.30
2018-07-28T09:21:36.083Z,49.60
2018-07-28T09:24:04.458Z,52.00
2018-07-28T09:26:32.743Z,51.70
2018-07-28T09:29:01.149Z,52.60
2018-07-28T09:31:29.511Z,53.40
2018-07-28T09:33:57.895Z,53.40
2018-07-28T09:36:26.373Z,52.70
2018-07-28T09:38:54.774Z,54.30
2018-07-28T09:41:23.228Z,56.30
2018-07-28T09:43:51.681Z,56.20
2018-07-28T09:46:20.159Z,56.80
2018-07-28T09:48:48.523Z,55.10
2018-07-28T09:51:16.863Z,54.90
2018-07-28T09:53:45.309Z,54.80
2018-07-28T09:56:13.811Z,56.00
2018-07-28T09:58:42.336Z,55.80
2018-07-28T10:01:16.093Z,57.20
2018-07-28T10:03:44.494Z,57.60
2018-07-28T10:06:12.893Z,58.00
2018-07-28T10:08:41.210Z,58.80
2018-07-28T10:11:09.639Z,61.50
2018-07-28T10:13:37.971Z,58.70
2018-07-28T10:16:06.334Z,60.70
2018-07-28T10:18:34.722Z,59.00
2018-07-28T10:21:03.217Z,54.40
2018-07-28T10:23:31.652Z,55.50
2018-07-28T10:26:00.077Z,55.80
2018-07-28T10:28:28.393Z,56.60
2018-07-28T10:30:56.873Z,56.00
2018-07-28T10:33:25.259Z,56.10
2018-07-28T10:35:54.151Z,57.00
2018-07-28T10:38:22.580Z,56.30
2018-07-28T10:40:50.949Z,56.40
2018-07-28T10:43:19.243Z,56.20
2018-07-28T10:45:47.711Z,57.00
2018-07-28T10:48:16.053Z,58.30
2018-07-28T10:50:49.573Z,58.10
2018-07-28T10:53:17.907Z,57.10
2018-07-28T10:55:46.244Z,56.40
2018-07-28T10:58:14.626Z,55.10
2018-07-28T11:00:42.912Z,55.60
2018-07-28T11:03:11.327Z,56.60
2018-07-28T11:05:39.738Z,55.20
2018-07-28T11:08:08.114Z,54.00
2018-07-28T11:10:36.389Z,54.10
2018-07-28T11:13:04.762Z,55.60
2018-07-28T11:15:33.037Z,53.70
2018-07-28T11:18:01.424Z,54.60
2018-07-28T11:20:29.845Z,53.60
2018-07-28T11:22:58.197Z,53.20
2018-07-28T11:25:26.479Z,54.70
2018-07-28T11:27:56.566Z,53.70
2018-07-28T11:30:25.049Z,52.20
2018-07-28T11:33:04.813Z,53.70
2018-07-28T11:35:44.647Z,52.70
2018-07-28T11:38:27.449Z,53.40
2018-07-28T11:41:07.245Z,53.40
2018-07-28T11:43:47.000Z,54.10
2018-07-28T11:48:43.357Z,54.80
2018-07-28T11:51:11.706Z,54.60
2018-07-28T11:53:40.173Z,54.80
2018-07-28T11:56:08.495Z,57.10
2018-07-28T11:58:36.818Z,54.60
2018-07-28T12:01:05.396Z,54.40
2018-07-28T12:03:33.918Z,55.20
2018-07-28T12:06:02.447Z,55.60
2018-07-28T12:08:30.799Z,54.60
2018-07-28T12:10:59.237Z,54.00
2018-07-28T12:13:27.557Z,54.90
2018-07-28T12:15:56.121Z,54.90
2018-07-28T12:18:24.432Z,54.40
2018-07-28T12:20:52.744Z,55.00
2018-07-28T12:23:21.065Z,55.40
2018-07-28T12:25:49.696Z,55.80
2018-07-28T12:28:17.959Z,55.90
2018-07-28T12:30:46.271Z,57.10
2018-07-28T12:33:14.621Z,57.20
2018-07-28T12:35:42.937Z,55.40
2018-07-28T12:38:11.268Z,55.10
2018-07-28T12:40:39.623Z,55.10
2018-07-28T12:43:08.068Z,54.50
2018-07-28T12:45:36.518Z,55.80
2018-07-28T12:48:04.786Z,54.60
2018-07-28T12:50:33.353Z,55.30
2018-07-28T12:53:01.675Z,54.90
2018-07-28T12:55:30.071Z,55.20
2018-07-28T12:57:58.344Z,55.50
2018-07-28T13:00:26.674Z,54.30
2018-07-28T13:02:55.067Z,53.60
2018-07-28T13:05:23.417Z,54.10
2018-07-28T13:07:51.824Z,54.30
2018-07-28T13:10:20.128Z,54.60
2018-07-28T13:12:48.759Z,54.90
2018-07-28T13:15:17.039Z,56.10
2018-07-28T13:17:45.351Z,56.60
2018-07-28T13:20:13.667Z,62.80
2018-07-28T13:22:42.043Z,65.60
2018-07-28T13:25:10.357Z,67.20
2018-07-28T13:27:38.673Z,69.80
2018-07-28T13:30:07.223Z,63.10
2018-07-28T13:32:35.523Z,70.10
2018-07-28T13:35:03.919Z,64.50
2018-07-28T13:37:32.311Z,61.80
2018-07-28T13:40:00.579Z,62.40
2018-07-28T13:42:28.902Z,62.90
2018-07-28T13:44:57.226Z,60.50
2018-07-28T13:47:25.527Z,61.60
2018-07-28T13:49:53.837Z,63.60
2018-07-28T13:52:22.125Z,62.60
2018-07-28T13:54:50.683Z,64.40
2018-07-28T13:57:19.083Z,77.10
2018-07-28T13:59:47.462Z,84.10
2018-07-28T14:02:15.754Z,90.50
2018-07-28T14:04:44.053Z,94.20
2018-07-28T14:07:12.357Z,98.50
2018-07-28T14:09:40.687Z,98.20
2018-07-28T14:12:08.964Z,99.30
2018-07-28T14:14:37.477Z,99.90
2018-07-28T14:17:05.766Z,99.90
2018-07-28T14:19:34.081Z,99.90
2018-07-28T14:22:02.429Z,99.90
2018-07-28T14:24:30.702Z,99.90
2018-07-28T14:26:58.978Z,99.90
2018-07-28T14:29:27.301Z,99.90
2018-07-28T14:31:55.611Z,99.90
2018-07-28T14:34:23.873Z,99.90
2018-07-28T14:36:52.220Z,99.90
2018-07-28T14:39:20.499Z,99.90
2018-07-28T14:41:48.823Z,99.90
2018-07-28T14:44:17.131Z,99.90
2018-07-28T14:46:45.536Z,99.90
2018-07-28T14:49:13.835Z,99.90
2018-07-28T14:51:42.315Z,99.90
2018-07-28T14:54:10.644Z,99.90
2018-07-28T14:56:39.078Z,99.90
2018-07-28T14:59:07.607Z,99.90
2018-07-28T15:01:35.948Z,99.90
2018-07-28T15:04:04.250Z,99.90
2018-07-28T15:06:32.595Z,99.90
2018-07-28T15:09:00.914Z,99.90
2018-07-28T15:11:29.203Z,99.90
2018-07-28T15:13:57.681Z,99.90
2018-07-28T15:16:25.928Z,99.90
2018-07-28T15:18:54.479Z,99.10
2018-07-28T15:21:22.869Z,97.80
2018-07-28T15:23:51.179Z,96.40
2018-07-28T15:26:19.559Z,97.00
2018-07-28T15:28:48.499Z,99.90
2018-07-28T15:31:16.802Z,99.20
2018-07-28T15:33:45.095Z,95.10
2018-07-28T15:36:13.463Z,99.20
2018-07-28T15:38:41.890Z,99.70
2018-07-28T15:41:10.204Z,99.90
2018-07-28T15:43:38.499Z,99.90
2018-07-28T15:46:07.847Z,99.90
2018-07-28T15:48:36.155Z,99.90
2018-07-28T15:51:04.617Z,99.90
2018-07-28T15:53:32.899Z,99.90
2018-07-28T15:56:02.026Z,99.90
2018-07-28T15:58:30.277Z,99.90
2018-07-28T16:00:58.634Z,99.90
2018-07-28T16:03:26.951Z,99.90
2018-07-28T16:05:55.359Z,99.90
2018-07-28T16:08:23.721Z,99.90
2018-07-28T16:10:52.007Z,99.90
2018-07-28T16:13:20.338Z,99.90
2018-07-28T16:15:48.922Z,99.90
2018-07-28T16:18:17.321Z,99.90
2018-07-28T16:20:45.749Z,99.90
2018-07-28T16:23:14.101Z,99.90
2018-07-28T16:25:42.423Z,99.90
2018-07-28T16:28:11.505Z,99.90
2018-07-28T16:30:39.838Z,99.90
2018-07-28T16:33:08.216Z,99.90
2018-07-28T16:35:36.575Z,99.90
2018-07-28T16:38:05.077Z,99.90
2018-07-28T16:40:33.443Z,99.90
2018-07-28T16:43:01.757Z,99.90
2018-07-28T16:45:30.077Z,99.90
2018-07-28T16:47:58.361Z,99.90
2018-07-28T16:50:26.653Z,99.90
2018-07-28T16:52:54.981Z,99.90
2018-07-28T16:55:23.288Z,99.90
2018-07-28T16:57:51.620Z,99.90
2018-07-28T17:00:20.112Z,99.90
2018-07-28T17:02:48.632Z,99.90
2018-07-28T17:05:17.023Z,99.90
2018-07-28T17:07:45.380Z,99.90
2018-07-28T17:10:13.664Z,99.90
2018-07-28T17:12:41.980Z,99.90
2018-07-28T17:15:11.021Z,99.90
2018-07-28T17:17:39.301Z,99.90
2018-07-28T17:20:08.315Z,99.90
2018-07-28T17:22:36.706Z,99.90
2018-07-28T17:25:04.956Z,99.90
2018-07-28T17:27:33.238Z,99.90
2018-07-28T17:30:01.550Z,99.90
2018-07-28T17:32:29.938Z,99.90
2018-07-28T17:34:58.611Z,99.90
2018-07-28T17:37:27.147Z,99.90
2018-07-28T17:39:55.859Z,99.90
2018-07-28T17:42:24.184Z,99.90
2018-07-28T17:47:20.481Z,99.90
2018-07-28T17:49:48.794Z,99.90
2018-07-28T17:52:17.070Z,99.90
2018-07-28T17:54:45.398Z,99.90
2018-07-28T17:57:13.780Z,99.90
2018-07-28T17:59:42.134Z,99.90
2018-07-28T18:02:10.432Z,99.90
2018-07-28T18:04:38.711Z,99.90
2018-07-28T18:07:06.983Z,99.90
2018-07-28T18:09:35.264Z,99.90
2018-07-28T18:12:03.651Z,99.90
2018-07-28T18:14:32.331Z,99.90
2018-07-28T18:17:00.675Z,99.90
2018-07-28T18:19:29.081Z,99.90
2018-07-28T18:21:57.393Z,99.90
2018-07-28T18:24:25.729Z,99.90
2018-07-28T18:26:54.045Z,99.90
2018-07-28T18:29:22.391Z,99.90
2018-07-28T18:31:50.667Z,99.90
2018-07-28T18:34:19.100Z,99.90
2018-07-28T18:36:47.352Z,99.90
2018-07-28T18:39:15.675Z,99.90
2018-07-28T18:41:43.988Z,99.90
2018-07-28T18:44:12.302Z,99.90
2018-07-28T18:46:40.619Z,99.90
2018-07-28T18:49:08.933Z,99.90
2018-07-28T18:51:37.272Z,99.90
2018-07-28T18:54:05.714Z,99.90
2018-07-28T18:56:34.068Z,99.90
2018-07-28T18:59:02.495Z,99.90
2018-07-28T19:01:30.779Z,99.90
2018-07-28T19:03:59.269Z,99.90
2018-07-28T19:06:27.580Z,99.90
2018-07-28T19:09:01.399Z,99.90
2018-07-28T19:11:29.683Z,99.90
2018-07-28T19:15:03.179Z,99.90
2018-07-28T19:17:36.709Z,99.90
2018-07-28T19:20:05.078Z,99.90
2018-07-28T19:22:38.756Z,99.90
2018-07-28T19:25:07.132Z,99.90
2018-07-28T19:27:35.411Z,99.90
2018-07-28T19:30:03.758Z,99.90
2018-07-28T19:32:32.103Z,99.90
2018-07-28T19:35:00.430Z,99.90
2018-07-28T19:37:29.675Z,99.90
2018-07-28T19:39:57.969Z,99.90
2018-07-28T19:42:31.487Z,99.90
2018-07-28T19:44:59.773Z,99.90
2018-07-28T19:47:28.079Z,99.90
2018-07-28T19:49:56.465Z,99.90
2018-07-28T19:52:24.780Z,99.90
2018-07-28T19:54:53.432Z,99.90
2018-07-28T19:57:21.732Z,99.90
2018-07-28T19:59:50.033Z,99.90
2018-07-28T20:02:18.315Z,99.90
2018-07-28T20:04:46.627Z,99.90
2018-07-28T20:07:14.911Z,99.90
2018-07-28T20:09:43.234Z,99.90
2018-07-28T20:12:11.557Z,99.90
2018-07-28T20:14:39.844Z,99.90
2018-07-28T20:17:08.148Z,99.90
2018-07-28T20:19:36.525Z,99.90
2018-07-28T20:22:04.752Z,99.90
2018-07-28T20:24:33.005Z,99.90
2018-07-28T20:27:01.329Z,99.90
2018-07-28T20:29:29.598Z,99.90
2018-07-28T20:31:57.933Z,99.90
2018-07-28T20:34:26.210Z,99.90
2018-07-28T20:36:54.529Z,99.90
2018-07-28T20:39:22.837Z,99.90
2018-07-28T20:41:51.136Z,99.90
2018-07-28T20:44:19.417Z,99.90
2018-07-28T20:46:47.905Z,99.90
2018-07-28T20:49:16.145Z,99.90
2018-07-28T20:51:44.432Z,99.90
2018-07-28T20:54:12.743Z,99.90
2018-07-28T20:56:41.036Z,99.90
2018-07-28T20:59:09.319Z,99.90
2018-07-28T21:01:37.665Z,99.90
2018-07-28T21:04:05.969Z,99.90
2018-07-28T21:06:34.269Z,99.90
2018-07-28T21:09:02.554Z,99.90
2018-07-28T21:11:30.879Z,99.90
2018-07-28T21:13:59.255Z,99.90
2018-07-28T21:16:27.620Z,99.90
2018-07-28T21:18:55.827Z,99.90
2018-07-28T21:21:24.160Z,99.90
2018-07-28T21:23:52.439Z,99.90
2018-07-28T21:26:20.716Z,99.90
2018-07-28T21:28:49.008Z,99.90
2018-07-28T21:31:17.312Z,99.90
2018-07-28T21:33:45.579Z,99.90
2018-07-28T21:36:13.895Z,99.90
2018-07-28T21:38:42.190Z,99.90
2018-07-28T21:41:10.517Z,99.90
2018-07-28T21:43:38.826Z,99.90
2018-07-28T21:46:07.164Z,99.90
2018-07-28T21:48:35.433Z,99.90
2018-07-28T21:51:03.776Z,99.90
2018-07-28T21:53:32.061Z,99.90
2018-07-28T21:56:00.537Z,99.90
2018-07-28T21:58:28.807Z,99.90
2018-07-28T22:01:03.189Z,99.90
2018-07-28T22:03:31.503Z,99.90
2018-07-28T22:05:59.810Z,99.90
2018-07-28T22:08:28.115Z,99.90
2018-07-28T22:10:57.491Z,99.90
2018-07-28T22:13:26.398Z,99.90
2018-07-28T22:15:54.877Z,99.90
2018-07-28T22:18:23.280Z,99.90
2018-07-28T22:20:51.606Z,99.90
2018-07-28T22:23:20.024Z,99.90
2018-07-28T22:25:48.391Z,99.90
2018-07-28T22:28:16.819Z,99.90
2018-07-28T22:30:45.250Z,99.90
2018-07-28T22:33:13.695Z,99.90
2018-07-28T22:35:41.998Z,99.90
2018-07-28T22:38:10.320Z,99.90
2018-07-28T22:40:38.641Z,99.90
2018-07-28T22:43:06.967Z,99.90
2018-07-28T22:45:35.278Z,99.90
2018-07-28T22:48:03.658Z,99.90
2018-07-28T22:50:31.957Z,99.90
2018-07-28T22:53:00.339Z,99.90
2018-07-28T22:57:56.738Z,99.90
2018-07-28T23:00:25.068Z,99.90
2018-07-28T23:02:53.362Z,99.90
2018-07-28T23:05:21.780Z,99.90
2018-07-28T23:07:50.077Z,99.90
2018-07-28T23:10:18.373Z,99.90
2018-07-28T23:12:46.664Z,99.90
2018-07-28T23:15:14.968Z,99.90
2018-07-28T23:17:43.782Z,99.90
2018-07-28T23:20:12.076Z,99.90
2018-07-28T23:22:40.396Z,99.90
2018-07-28T23:25:08.761Z,99.90
2018-07-28T23:27:37.167Z,99.90
2018-07-28T23:30:08.137Z,99.90
2018-07-28T23:32:36.731Z,99.90
2018-07-28T23:37:33.314Z,99.90
2018-07-28T23:40:01.654Z,99.90
2018-07-28T23:42:29.976Z,99.90
2018-07-28T23:44:58.341Z,99.90
2018-07-28T23:47:33.394Z,99.90
2018-07-28T23:50:01.723Z,99.90
2018-07-28T23:54:58.122Z,99.90
2018-07-28T23:57:26.545Z,99.90
2018-07-28T23:59:54.900Z,99.90
